sensor_id;sensor_type;location;lat;lon;timestamp;temperature;humidity
30280;DHT22;17097;50.916;5.344;2022-09-29T00:02:15;10.40;99.90
30280;DHT22;17097;50.916;5.344;2022-09-29T00:04:41;10.40;99.90
30280;DHT22;17097;50.916;5.344;2022-09-29T00:07:06;10.40;99.90
30280;DHT22;17097;50.916;5.344;2022-09-29T00:09:32;10.30;99.90
30280;DHT22;17097;50.916;5.344;2022-09-29T00:11:58;10.20;99.90
30280;DHT22;17097;50.916;5.344;2022-09-29T00:14:23;10.20;99.90
30280;DHT22;17097;50.916;5.344;2022-09-29T00:16:49;10.20;99.90
30280;DHT22;17097;50.916;5.344;2022-09-29T00:19:16;10.10;99.90
30280;DHT22;17097;50.916;5.344;2022-09-29T00:21:41;10.10;99.90
30280;DHT22;17097;50.916;5.344;2022-09-29T00:24:07;10.10;99.90
30280;DHT22;17097;50.916;5.344;2022-09-29T00:26:33;10.10;99.90
30280;DHT22;17097;50.916;5.344;2022-09-29T00:28:59;10.10;99.90
30280;DHT22;17097;50.916;5.344;2022-09-29T00:31:27;10.10;99.90
30280;DHT22;17097;50.916;5.344;2022-09-29T00:33:53;10.10;99.90
30280;DHT22;17097;50.916;5.344;2022-09-29T00:36:20;10.00;99.90
30280;DHT22;17097;50.916;5.344;2022-09-29T00:38:47;10.10;99.90
30280;DHT22;17097;50.916;5.344;2022-09-29T00:41:19;10.00;99.90
30280;DHT22;17097;50.916;5.344;2022-09-29T00:46:31;9.90;99.90
30280;DHT22;17097;50.916;5.344;2022-09-29T00:49:03;9.90;99.90
30280;DHT22;17097;50.916;5.344;2022-09-29T00:51:32;9.90;99.90
30280;DHT22;17097;50.916;5.344;2022-09-29T00:54:00;9.90;99.90
30280;DHT22;17097;50.916;5.344;2022-09-29T00:56:26;10.00;99.90
30280;DHT22;17097;50.916;5.344;2022-09-29T00:58:59;10.00;99.90
30280;DHT22;17097;50.916;5.344;2022-09-29T01:01:27;10.00;99.90
30280;DHT22;17097;50.916;5.344;2022-09-29T01:04:00;10.00;99.90
30280;DHT22;17097;50.916;5.344;2022-09-29T01:06:34;10.00;99.90
30280;DHT22;17097;50.916;5.344;2022-09-29T01:09:02;9.90;99.90
30280;DHT22;17097;50.916;5.344;2022-09-29T01:11:29;9.90;99.90
30280;DHT22;17097;50.916;5.344;2022-09-29T01:13:56;9.90;99.90
30280;DHT22;17097;50.916;5.344;2022-09-29T01:16:28;10.00;99.90
30280;DHT22;17097;50.916;5.344;2022-09-29T01:18:54;9.90;99.90
30280;DHT22;17097;50.916;5.344;2022-09-29T01:27:32;9.90;99.90
30280;DHT22;17097;50.916;5.344;2022-09-29T01:32:50;9.90;99.90
30280;DHT22;17097;50.916;5.344;2022-09-29T01:38:07;9.80;99.90
30280;DHT22;17097;50.916;5.344;2022-09-29T01:43:30;9.70;99.90
30280;DHT22;17097;50.916;5.344;2022-09-29T01:46:08;9.70;99.90
30280;DHT22;17097;50.916;5.344;2022-09-29T01:48:39;9.60;99.90
30280;DHT22;17097;50.916;5.344;2022-09-29T01:51:14;9.50;99.90
30280;DHT22;17097;50.916;5.344;2022-09-29T01:54:03;9.60;99.90
30280;DHT22;17097;50.916;5.344;2022-09-29T01:56:52;9.60;99.90
30280;DHT22;17097;50.916;5.344;2022-09-29T01:59:37;9.60;99.90
30280;DHT22;17097;50.916;5.344;2022-09-29T02:02:10;9.50;99.90
30280;DHT22;17097;50.916;5.344;2022-09-29T02:04:45;9.50;99.90
30280;DHT22;17097;50.916;5.344;2022-09-29T02:07:25;9.40;99.90
30280;DHT22;17097;50.916;5.344;2022-09-29T02:10:02;9.40;99.90
30280;DHT22;17097;50.916;5.344;2022-09-29T02:12:31;9.30;99.90
30280;DHT22;17097;50.916;5.344;2022-09-29T02:15:00;9.30;99.90
30280;DHT22;17097;50.916;5.344;2022-09-29T02:17:33;9.20;99.90
30280;DHT22;17097;50.916;5.344;2022-09-29T02:20:01;9.20;99.90
30280;DHT22;17097;50.916;5.344;2022-09-29T02:22:27;9.20;99.90
30280;DHT22;17097;50.916;5.344;2022-09-29T02:24:54;9.30;99.90
30280;DHT22;17097;50.916;5.344;2022-09-29T02:27:24;9.30;99.90
30280;DHT22;17097;50.916;5.344;2022-09-29T02:29:50;9.30;99.90
30280;DHT22;17097;50.916;5.344;2022-09-29T02:32:15;9.30;99.90
30280;DHT22;17097;50.916;5.344;2022-09-29T02:34:44;9.20;99.90
30280;DHT22;17097;50.916;5.344;2022-09-29T02:43:06;9.20;99.90
30280;DHT22;17097;50.916;5.344;2022-09-29T02:59:22;9.00;99.90
30280;DHT22;17097;50.916;5.344;2022-09-29T03:01:54;9.00;99.90
30280;DHT22;17097;50.916;5.344;2022-09-29T03:04:24;9.00;99.90
30280;DHT22;17097;50.916;5.344;2022-09-29T03:06:51;9.00;99.90
30280;DHT22;17097;50.916;5.344;2022-09-29T03:09:17;9.00;99.90
30280;DHT22;17097;50.916;5.344;2022-09-29T03:11:43;8.90;99.90
30280;DHT22;17097;50.916;5.344;2022-09-29T03:14:09;9.00;99.90
30280;DHT22;17097;50.916;5.344;2022-09-29T03:16:35;9.00;99.90
30280;DHT22;17097;50.916;5.344;2022-09-29T03:19:04;8.90;99.90
30280;DHT22;17097;50.916;5.344;2022-09-29T03:21:32;8.90;99.90
30280;DHT22;17097;50.916;5.344;2022-09-29T03:23:57;8.90;99.90
30280;DHT22;17097;50.916;5.344;2022-09-29T03:26:23;8.90;99.90
30280;DHT22;17097;50.916;5.344;2022-09-29T03:28:50;8.90;99.90
30280;DHT22;17097;50.916;5.344;2022-09-29T03:31:16;9.00;99.90
30280;DHT22;17097;50.916;5.344;2022-09-29T03:33:42;8.90;99.90
30280;DHT22;17097;50.916;5.344;2022-09-29T03:36:08;9.00;99.90
30280;DHT22;17097;50.916;5.344;2022-09-29T03:38:36;9.00;99.90
30280;DHT22;17097;50.916;5.344;2022-09-29T03:41:02;8.90;99.90
30280;DHT22;17097;50.916;5.344;2022-09-29T03:43:28;8.90;99.90
30280;DHT22;17097;50.916;5.344;2022-09-29T03:45:54;8.90;99.90
30280;DHT22;17097;50.916;5.344;2022-09-29T03:48:21;8.90;99.90
30280;DHT22;17097;50.916;5.344;2022-09-29T03:50:48;8.80;99.90
30280;DHT22;17097;50.916;5.344;2022-09-29T03:53:14;8.80;99.90
30280;DHT22;17097;50.916;5.344;2022-09-29T03:55:44;8.80;99.90
30280;DHT22;17097;50.916;5.344;2022-09-29T03:58:10;8.70;99.90
30280;DHT22;17097;50.916;5.344;2022-09-29T04:00:36;8.70;99.90
30280;DHT22;17097;50.916;5.344;2022-09-29T04:03:01;8.70;99.90
30280;DHT22;17097;50.916;5.344;2022-09-29T04:05:29;8.70;99.90
30280;DHT22;17097;50.916;5.344;2022-09-29T04:07:54;8.80;99.90
30280;DHT22;17097;50.916;5.344;2022-09-29T04:10:20;8.70;99.90
30280;DHT22;17097;50.916;5.344;2022-09-29T04:12:46;8.70;99.90
30280;DHT22;17097;50.916;5.344;2022-09-29T04:15:11;8.90;99.90
30280;DHT22;17097;50.916;5.344;2022-09-29T04:17:37;8.90;99.90
30280;DHT22;17097;50.916;5.344;2022-09-29T04:20:02;8.90;99.90
30280;DHT22;17097;50.916;5.344;2022-09-29T04:22:28;9.00;99.90
30280;DHT22;17097;50.916;5.344;2022-09-29T04:24:54;8.90;99.90
30280;DHT22;17097;50.916;5.344;2022-09-29T04:27:20;8.80;99.90
30280;DHT22;17097;50.916;5.344;2022-09-29T04:29:46;8.80;99.90
30280;DHT22;17097;50.916;5.344;2022-09-29T04:32:12;8.80;99.90
30280;DHT22;17097;50.916;5.344;2022-09-29T04:34:38;8.80;99.90
30280;DHT22;17097;50.916;5.344;2022-09-29T04:37:07;8.80;99.90
30280;DHT22;17097;50.916;5.344;2022-09-29T04:39:36;8.80;99.90
30280;DHT22;17097;50.916;5.344;2022-09-29T04:42:01;8.80;99.90
30280;DHT22;17097;50.916;5.344;2022-09-29T04:44:27;8.80;99.90
30280;DHT22;17097;50.916;5.344;2022-09-29T04:46:53;8.80;99.90
30280;DHT22;17097;50.916;5.344;2022-09-29T04:49:18;8.70;99.90
30280;DHT22;17097;50.916;5.344;2022-09-29T04:51:44;8.70;99.90
30280;DHT22;17097;50.916;5.344;2022-09-29T04:54:10;8.60;99.90
30280;DHT22;17097;50.916;5.344;2022-09-29T04:56:36;8.60;99.90
30280;DHT22;17097;50.916;5.344;2022-09-29T04:59:02;8.60;99.90
30280;DHT22;17097;50.916;5.344;2022-09-29T05:01:28;8.60;99.90
30280;DHT22;17097;50.916;5.344;2022-09-29T05:03:54;8.60;99.90
30280;DHT22;17097;50.916;5.344;2022-09-29T05:06:20;8.60;99.90
30280;DHT22;17097;50.916;5.344;2022-09-29T05:08:46;8.60;99.90
30280;DHT22;17097;50.916;5.344;2022-09-29T05:11:12;8.60;99.90
30280;DHT22;17097;50.916;5.344;2022-09-29T05:13:38;8.60;99.90
30280;DHT22;17097;50.916;5.344;2022-09-29T05:16:04;8.60;99.90
30280;DHT22;17097;50.916;5.344;2022-09-29T05:18:31;8.60;99.90
30280;DHT22;17097;50.916;5.344;2022-09-29T05:21:02;8.70;99.90
30280;DHT22;17097;50.916;5.344;2022-09-29T05:23:27;8.70;99.90
30280;DHT22;17097;50.916;5.344;2022-09-29T05:25:53;8.70;99.90
30280;DHT22;17097;50.916;5.344;2022-09-29T05:28:19;8.60;99.90
30280;DHT22;17097;50.916;5.344;2022-09-29T05:30:44;8.60;99.90
30280;DHT22;17097;50.916;5.344;2022-09-29T05:33:10;8.60;99.90
30280;DHT22;17097;50.916;5.344;2022-09-29T05:35:35;8.60;99.90
30280;DHT22;17097;50.916;5.344;2022-09-29T05:38:01;8.60;99.90
30280;DHT22;17097;50.916;5.344;2022-09-29T05:40:27;8.50;99.90
30280;DHT22;17097;50.916;5.344;2022-09-29T05:42:52;8.60;99.90
30280;DHT22;17097;50.916;5.344;2022-09-29T05:45:18;8.50;99.90
30280;DHT22;17097;50.916;5.344;2022-09-29T05:47:44;8.40;99.90
30280;DHT22;17097;50.916;5.344;2022-09-29T05:50:13;8.40;99.90
30280;DHT22;17097;50.916;5.344;2022-09-29T05:52:39;8.50;99.90
30280;DHT22;17097;50.916;5.344;2022-09-29T05:55:05;8.40;99.90
30280;DHT22;17097;50.916;5.344;2022-09-29T05:57:34;8.40;99.90
30280;DHT22;17097;50.916;5.344;2022-09-29T06:00:01;8.40;99.90
30280;DHT22;17097;50.916;5.344;2022-09-29T06:02:26;8.40;99.90
30280;DHT22;17097;50.916;5.344;2022-09-29T06:04:52;8.40;99.90
30280;DHT22;17097;50.916;5.344;2022-09-29T06:07:18;8.40;99.90
30280;DHT22;17097;50.916;5.344;2022-09-29T06:09:43;8.40;99.90
30280;DHT22;17097;50.916;5.344;2022-09-29T06:12:09;8.40;99.90
30280;DHT22;17097;50.916;5.344;2022-09-29T06:14:35;8.50;99.90
30280;DHT22;17097;50.916;5.344;2022-09-29T06:17:01;8.60;99.90
30280;DHT22;17097;50.916;5.344;2022-09-29T06:19:26;8.80;99.90
30280;DHT22;17097;50.916;5.344;2022-09-29T06:21:52;8.90;99.90
30280;DHT22;17097;50.916;5.344;2022-09-29T06:24:17;9.20;99.90
30280;DHT22;17097;50.916;5.344;2022-09-29T06:26:43;9.40;99.90
30280;DHT22;17097;50.916;5.344;2022-09-29T06:29:09;9.50;99.90
30280;DHT22;17097;50.916;5.344;2022-09-29T06:31:34;9.50;99.90
30280;DHT22;17097;50.916;5.344;2022-09-29T06:34:02;9.70;99.90
30280;DHT22;17097;50.916;5.344;2022-09-29T06:36:37;9.80;99.90
30280;DHT22;17097;50.916;5.344;2022-09-29T06:39:23;9.90;99.90
30280;DHT22;17097;50.916;5.344;2022-09-29T06:41:48;10.30;99.90
30280;DHT22;17097;50.916;5.344;2022-09-29T06:44:20;10.30;99.90
30280;DHT22;17097;50.916;5.344;2022-09-29T06:46:46;10.10;99.90
30280;DHT22;17097;50.916;5.344;2022-09-29T06:49:12;10.20;99.90
30280;DHT22;17097;50.916;5.344;2022-09-29T06:51:39;10.10;99.90
30280;DHT22;17097;50.916;5.344;2022-09-29T06:54:05;10.10;99.90
30280;DHT22;17097;50.916;5.344;2022-09-29T06:56:31;10.10;99.90
30280;DHT22;17097;50.916;5.344;2022-09-29T06:58:56;10.20;99.90
30280;DHT22;17097;50.916;5.344;2022-09-29T07:01:22;10.30;99.90
30280;DHT22;17097;50.916;5.344;2022-09-29T07:03:48;10.50;99.90
30280;DHT22;17097;50.916;5.344;2022-09-29T07:06:13;10.50;99.90
30280;DHT22;17097;50.916;5.344;2022-09-29T07:08:39;10.60;99.90
30280;DHT22;17097;50.916;5.344;2022-09-29T07:11:06;10.70;99.90
30280;DHT22;17097;50.916;5.344;2022-09-29T07:13:32;10.80;99.90
30280;DHT22;17097;50.916;5.344;2022-09-29T07:18:32;10.90;99.90
30280;DHT22;17097;50.916;5.344;2022-09-29T07:20:59;10.90;99.90
30280;DHT22;17097;50.916;5.344;2022-09-29T07:23:24;10.90;99.90
30280;DHT22;17097;50.916;5.344;2022-09-29T07:25:51;11.00;99.90
30280;DHT22;17097;50.916;5.344;2022-09-29T07:28:18;11.10;99.90
30280;DHT22;17097;50.916;5.344;2022-09-29T07:30:43;11.10;99.90
30280;DHT22;17097;50.916;5.344;2022-09-29T07:33:09;11.20;99.90
30280;DHT22;17097;50.916;5.344;2022-09-29T07:35:35;11.30;99.90
30280;DHT22;17097;50.916;5.344;2022-09-29T07:38:00;11.30;99.90
30280;DHT22;17097;50.916;5.344;2022-09-29T07:40:26;11.40;99.90
30280;DHT22;17097;50.916;5.344;2022-09-29T07:42:53;11.50;99.90
30280;DHT22;17097;50.916;5.344;2022-09-29T07:45:19;11.60;99.90
30280;DHT22;17097;50.916;5.344;2022-09-29T07:47:45;11.70;99.90
30280;DHT22;17097;50.916;5.344;2022-09-29T07:50:11;11.90;99.90
30280;DHT22;17097;50.916;5.344;2022-09-29T07:52:37;12.00;99.90
30280;DHT22;17097;50.916;5.344;2022-09-29T07:55:03;12.00;99.90
30280;DHT22;17097;50.916;5.344;2022-09-29T07:57:30;12.00;99.90
30280;DHT22;17097;50.916;5.344;2022-09-29T07:59:55;12.00;99.90
30280;DHT22;17097;50.916;5.344;2022-09-29T08:02:23;12.10;99.90
30280;DHT22;17097;50.916;5.344;2022-09-29T08:04:49;12.10;99.90
30280;DHT22;17097;50.916;5.344;2022-09-29T08:07:15;12.10;99.90
30280;DHT22;17097;50.916;5.344;2022-09-29T08:09:40;12.20;99.90
30280;DHT22;17097;50.916;5.344;2022-09-29T08:12:07;12.30;99.90
30280;DHT22;17097;50.916;5.344;2022-09-29T08:14:33;12.30;99.90
30280;DHT22;17097;50.916;5.344;2022-09-29T08:16:59;12.50;99.90
30280;DHT22;17097;50.916;5.344;2022-09-29T08:19:25;12.50;99.90
30280;DHT22;17097;50.916;5.344;2022-09-29T08:21:52;12.60;99.90
30280;DHT22;17097;50.916;5.344;2022-09-29T08:24:18;12.70;99.90
30280;DHT22;17097;50.916;5.344;2022-09-29T08:26:43;12.70;99.90
30280;DHT22;17097;50.916;5.344;2022-09-29T08:29:10;12.90;99.90
30280;DHT22;17097;50.916;5.344;2022-09-29T08:31:36;13.00;99.90
30280;DHT22;17097;50.916;5.344;2022-09-29T08:34:05;13.10;99.90
30280;DHT22;17097;50.916;5.344;2022-09-29T08:36:31;13.20;99.90
30280;DHT22;17097;50.916;5.344;2022-09-29T08:38:57;13.20;99.90
30280;DHT22;17097;50.916;5.344;2022-09-29T08:49:56;14.10;99.90
30280;DHT22;17097;50.916;5.344;2022-09-29T08:52:28;14.30;99.90
30280;DHT22;17097;50.916;5.344;2022-09-29T08:55:25;14.40;99.90
30280;DHT22;17097;50.916;5.344;2022-09-29T08:57:59;14.50;99.90
30280;DHT22;17097;50.916;5.344;2022-09-29T09:00:41;14.60;99.90
30280;DHT22;17097;50.916;5.344;2022-09-29T09:23:00;15.40;99.90
30280;DHT22;17097;50.916;5.344;2022-09-29T09:25:33;15.60;99.90
30280;DHT22;17097;50.916;5.344;2022-09-29T09:28:07;15.60;99.90
30280;DHT22;17097;50.916;5.344;2022-09-29T09:30:42;15.90;99.90
30280;DHT22;17097;50.916;5.344;2022-09-29T09:36:12;17.10;99.90
30280;DHT22;17097;50.916;5.344;2022-09-29T09:38:59;18.10;99.90
30280;DHT22;17097;50.916;5.344;2022-09-29T09:41:27;18.20;99.90
30280;DHT22;17097;50.916;5.344;2022-09-29T09:44:14;18.30;99.90
30280;DHT22;17097;50.916;5.344;2022-09-29T09:46:46;18.40;99.90
30280;DHT22;17097;50.916;5.344;2022-09-29T09:49:19;18.50;99.90
30280;DHT22;17097;50.916;5.344;2022-09-29T09:52:02;18.40;99.90
30280;DHT22;17097;50.916;5.344;2022-09-29T09:54:40;18.30;99.90
30280;DHT22;17097;50.916;5.344;2022-09-29T09:59:51;18.50;99.90
30280;DHT22;17097;50.916;5.344;2022-09-29T10:02:20;19.50;99.90
30280;DHT22;17097;50.916;5.344;2022-09-29T10:04:49;20.50;99.90
30280;DHT22;17097;50.916;5.344;2022-09-29T10:07:18;21.60;99.90
30280;DHT22;17097;50.916;5.344;2022-09-29T10:09:44;22.60;97.10
30280;DHT22;17097;50.916;5.344;2022-09-29T10:12:28;23.60;95.10
30280;DHT22;17097;50.916;5.344;2022-09-29T10:14:58;24.40;91.40
30280;DHT22;17097;50.916;5.344;2022-09-29T10:17:30;25.10;86.00
30280;DHT22;17097;50.916;5.344;2022-09-29T10:20:03;25.10;81.50
30280;DHT22;17097;50.916;5.344;2022-09-29T10:22:30;25.30;82.70
30280;DHT22;17097;50.916;5.344;2022-09-29T10:27:41;26.00;79.60
30280;DHT22;17097;50.916;5.344;2022-09-29T10:30:37;26.60;74.20
30280;DHT22;17097;50.916;5.344;2022-09-29T10:33:04;26.70;73.00
30280;DHT22;17097;50.916;5.344;2022-09-29T10:35:37;26.80;73.00
30280;DHT22;17097;50.916;5.344;2022-09-29T10:38:17;26.80;71.30
30280;DHT22;17097;50.916;5.344;2022-09-29T10:41:02;26.10;71.20
30280;DHT22;17097;50.916;5.344;2022-09-29T10:43:36;25.40;69.10
30280;DHT22;17097;50.916;5.344;2022-09-29T10:46:03;24.70;74.50
30280;DHT22;17097;50.916;5.344;2022-09-29T10:48:29;23.90;79.60
30280;DHT22;17097;50.916;5.344;2022-09-29T10:51:02;23.30;81.30
30280;DHT22;17097;50.916;5.344;2022-09-29T10:53:39;22.60;82.30
30280;DHT22;17097;50.916;5.344;2022-09-29T10:56:21;21.90;87.30
30280;DHT22;17097;50.916;5.344;2022-09-29T10:58:54;21.50;90.10
30280;DHT22;17097;50.916;5.344;2022-09-29T11:01:21;20.90;91.70
30280;DHT22;17097;50.916;5.344;2022-09-29T11:03:53;20.50;93.40
30280;DHT22;17097;50.916;5.344;2022-09-29T11:06:32;20.00;93.70
30280;DHT22;17097;50.916;5.344;2022-09-29T11:08:59;19.80;94.90
30280;DHT22;17097;50.916;5.344;2022-09-29T11:11:36;19.60;95.50
30280;DHT22;17097;50.916;5.344;2022-09-29T11:14:03;19.60;95.00
30280;DHT22;17097;50.916;5.344;2022-09-29T11:19:06;19.50;96.10
30280;DHT22;17097;50.916;5.344;2022-09-29T11:35:15;18.50;98.30
30280;DHT22;17097;50.916;5.344;2022-09-29T11:48:47;17.50;99.90
30280;DHT22;17097;50.916;5.344;2022-09-29T12:02:01;17.30;99.90
30280;DHT22;17097;50.916;5.344;2022-09-29T12:07:59;17.60;99.90
30280;DHT22;17097;50.916;5.344;2022-09-29T12:13:34;17.90;99.90
30280;DHT22;17097;50.916;5.344;2022-09-29T12:18:51;17.50;99.90
30280;DHT22;17097;50.916;5.344;2022-09-29T12:21:41;17.40;99.90
30280;DHT22;17097;50.916;5.344;2022-09-29T12:24:35;17.40;99.90
30280;DHT22;17097;50.916;5.344;2022-09-29T12:27:11;17.40;99.90
30280;DHT22;17097;50.916;5.344;2022-09-29T12:32:32;17.40;99.90
30280;DHT22;17097;50.916;5.344;2022-09-29T12:35:16;17.30;99.90
30280;DHT22;17097;50.916;5.344;2022-09-29T12:37:47;17.20;99.90
30280;DHT22;17097;50.916;5.344;2022-09-29T12:45:47;17.30;99.90
30280;DHT22;17097;50.916;5.344;2022-09-29T12:51:07;17.50;99.90
30280;DHT22;17097;50.916;5.344;2022-09-29T12:53:38;17.50;99.90
30280;DHT22;17097;50.916;5.344;2022-09-29T12:56:19;17.30;99.90
30280;DHT22;17097;50.916;5.344;2022-09-29T12:59:24;17.30;99.90
30280;DHT22;17097;50.916;5.344;2022-09-29T13:01:39;17.10;99.90
30280;DHT22;17097;50.916;5.344;2022-09-29T13:12:41;17.30;99.90
30280;DHT22;17097;50.916;5.344;2022-09-29T13:28:50;17.70;99.90
30280;DHT22;17097;50.916;5.344;2022-09-29T13:31:22;17.90;99.90
30280;DHT22;17097;50.916;5.344;2022-09-29T13:33:58;18.00;99.90
30280;DHT22;17097;50.916;5.344;2022-09-29T13:36:36;18.10;99.30
30280;DHT22;17097;50.916;5.344;2022-09-29T13:39:20;18.20;99.30
30280;DHT22;17097;50.916;5.344;2022-09-29T13:41:47;18.50;99.90
30280;DHT22;17097;50.916;5.344;2022-09-29T13:46:41;18.40;99.90
30280;DHT22;17097;50.916;5.344;2022-09-29T13:52:27;18.50;99.10
30280;DHT22;17097;50.916;5.344;2022-09-29T13:54:49;18.70;99.70
30280;DHT22;17097;50.916;5.344;2022-09-29T14:00:13;19.00;98.20
30280;DHT22;17097;50.916;5.344;2022-09-29T14:02:45;19.30;96.30
30280;DHT22;17097;50.916;5.344;2022-09-29T14:16:23;19.60;98.20
30280;DHT22;17097;50.916;5.344;2022-09-29T14:21:59;19.60;96.70
30280;DHT22;17097;50.916;5.344;2022-09-29T14:30:36;20.20;95.50
30280;DHT22;17097;50.916;5.344;2022-09-29T14:33:33;20.20;95.40
30280;DHT22;17097;50.916;5.344;2022-09-29T14:36:01;20.20;93.10
30280;DHT22;17097;50.916;5.344;2022-09-29T14:38:38;20.40;91.90
30280;DHT22;17097;50.916;5.344;2022-09-29T14:52:29;20.90;91.60
30280;DHT22;17097;50.916;5.344;2022-09-29T15:00:30;20.40;91.20
30280;DHT22;17097;50.916;5.344;2022-09-29T15:02:58;20.30;93.10
30280;DHT22;17097;50.916;5.344;2022-09-29T15:05:30;20.30;93.40
30280;DHT22;17097;50.916;5.344;2022-09-29T15:07:57;20.10;93.70
30280;DHT22;17097;50.916;5.344;2022-09-29T15:10:37;19.80;92.60
30280;DHT22;17097;50.916;5.344;2022-09-29T15:13:37;19.80;92.80
30280;DHT22;17097;50.916;5.344;2022-09-29T15:16:11;19.80;93.60
30280;DHT22;17097;50.916;5.344;2022-09-29T15:21:21;19.70;95.50
30280;DHT22;17097;50.916;5.344;2022-09-29T15:26:40;19.60;96.10
30280;DHT22;17097;50.916;5.344;2022-09-29T15:29:09;19.50;95.60
30280;DHT22;17097;50.916;5.344;2022-09-29T15:31:38;19.50;95.50
30280;DHT22;17097;50.916;5.344;2022-09-29T15:34:13;19.50;95.70
30280;DHT22;17097;50.916;5.344;2022-09-29T15:36:41;19.60;96.00
30280;DHT22;17097;50.916;5.344;2022-09-29T15:42:02;19.50;96.30
30280;DHT22;17097;50.916;5.344;2022-09-29T15:44:30;19.40;95.70
30280;DHT22;17097;50.916;5.344;2022-09-29T15:46:57;19.20;95.60
30280;DHT22;17097;50.916;5.344;2022-09-29T15:49:25;19.20;96.30
30280;DHT22;17097;50.916;5.344;2022-09-29T15:52:00;19.10;96.50
30280;DHT22;17097;50.916;5.344;2022-09-29T15:54:38;19.10;97.10
30280;DHT22;17097;50.916;5.344;2022-09-29T16:05:32;18.60;96.60
30280;DHT22;17097;50.916;5.344;2022-09-29T16:08:18;18.60;97.40
30280;DHT22;17097;50.916;5.344;2022-09-29T16:10:51;18.70;96.00
30280;DHT22;17097;50.916;5.344;2022-09-29T16:13:31;18.60;96.10
30280;DHT22;17097;50.916;5.344;2022-09-29T16:16:01;18.50;96.60
30280;DHT22;17097;50.916;5.344;2022-09-29T16:18:38;18.30;97.20
30280;DHT22;17097;50.916;5.344;2022-09-29T16:21:09;18.30;97.50
30280;DHT22;17097;50.916;5.344;2022-09-29T16:23:44;18.10;97.90
30280;DHT22;17097;50.916;5.344;2022-09-29T16:31:38;18.20;98.90
30280;DHT22;17097;50.916;5.344;2022-09-29T16:37:00;18.00;99.90
30280;DHT22;17097;50.916;5.344;2022-09-29T16:39:29;18.00;99.90
30280;DHT22;17097;50.916;5.344;2022-09-29T16:41:58;17.80;99.90
30280;DHT22;17097;50.916;5.344;2022-09-29T16:44:29;17.70;99.90
30280;DHT22;17097;50.916;5.344;2022-09-29T16:49:54;17.40;99.90
30280;DHT22;17097;50.916;5.344;2022-09-29T16:52:44;17.30;99.90
30280;DHT22;17097;50.916;5.344;2022-09-29T16:58:00;17.10;99.90
30280;DHT22;17097;50.916;5.344;2022-09-29T17:00:26;17.00;99.90
30280;DHT22;17097;50.916;5.344;2022-09-29T17:02:53;16.90;99.90
30280;DHT22;17097;50.916;5.344;2022-09-29T17:05:25;16.80;99.90
30280;DHT22;17097;50.916;5.344;2022-09-29T17:07:59;16.80;99.90
30280;DHT22;17097;50.916;5.344;2022-09-29T17:10:25;16.70;99.90
30280;DHT22;17097;50.916;5.344;2022-09-29T17:12:51;16.70;99.90
30280;DHT22;17097;50.916;5.344;2022-09-29T17:15:18;16.60;99.90
30280;DHT22;17097;50.916;5.344;2022-09-29T17:17:46;16.60;99.90
30280;DHT22;17097;50.916;5.344;2022-09-29T17:20:15;16.60;99.90
30280;DHT22;17097;50.916;5.344;2022-09-29T17:22:42;16.50;99.90
30280;DHT22;17097;50.916;5.344;2022-09-29T17:25:10;16.40;99.90
30280;DHT22;17097;50.916;5.344;2022-09-29T17:27:36;16.30;99.90
30280;DHT22;17097;50.916;5.344;2022-09-29T17:30:23;16.30;99.90
30280;DHT22;17097;50.916;5.344;2022-09-29T17:32:52;16.30;99.90
30280;DHT22;17097;50.916;5.344;2022-09-29T17:35:19;16.10;99.90
30280;DHT22;17097;50.916;5.344;2022-09-29T17:37:46;16.10;99.90
30280;DHT22;17097;50.916;5.344;2022-09-29T17:40:23;16.00;99.90
30280;DHT22;17097;50.916;5.344;2022-09-29T17:42:49;16.00;99.90
30280;DHT22;17097;50.916;5.344;2022-09-29T17:45:17;16.00;99.90
30280;DHT22;17097;50.916;5.344;2022-09-29T17:47:44;15.90;99.90
30280;DHT22;17097;50.916;5.344;2022-09-29T17:53:01;15.80;99.90
30280;DHT22;17097;50.916;5.344;2022-09-29T17:55:29;15.70;99.90
30280;DHT22;17097;50.916;5.344;2022-09-29T17:57:56;15.60;99.90
30280;DHT22;17097;50.916;5.344;2022-09-29T18:00:24;15.60;99.90
30280;DHT22;17097;50.916;5.344;2022-09-29T18:02:51;15.50;99.90
30280;DHT22;17097;50.916;5.344;2022-09-29T18:05:24;15.50;99.90
30280;DHT22;17097;50.916;5.344;2022-09-29T18:07:51;15.40;99.90
30280;DHT22;17097;50.916;5.344;2022-09-29T18:10:37;15.30;99.90
30280;DHT22;17097;50.916;5.344;2022-09-29T18:13:05;15.30;99.90
30280;DHT22;17097;50.916;5.344;2022-09-29T18:15:32;15.30;99.90
30280;DHT22;17097;50.916;5.344;2022-09-29T18:18:00;15.20;99.90
30280;DHT22;17097;50.916;5.344;2022-09-29T18:20:31;15.20;99.90
30280;DHT22;17097;50.916;5.344;2022-09-29T18:22:57;15.00;99.90
30280;DHT22;17097;50.916;5.344;2022-09-29T18:25:27;14.90;99.90
30280;DHT22;17097;50.916;5.344;2022-09-29T18:27:53;14.90;99.90
30280;DHT22;17097;50.916;5.344;2022-09-29T18:30:22;14.80;99.90
30280;DHT22;17097;50.916;5.344;2022-09-29T18:32:51;14.70;99.90
30280;DHT22;17097;50.916;5.344;2022-09-29T18:35:20;14.80;99.90
30280;DHT22;17097;50.916;5.344;2022-09-29T18:37:46;14.70;99.90
30280;DHT22;17097;50.916;5.344;2022-09-29T18:40:12;14.70;99.90
30280;DHT22;17097;50.916;5.344;2022-09-29T18:42:42;14.60;99.90
30280;DHT22;17097;50.916;5.344;2022-09-29T18:45:14;14.50;99.90
30280;DHT22;17097;50.916;5.344;2022-09-29T18:47:43;14.50;99.90
30280;DHT22;17097;50.916;5.344;2022-09-29T18:50:18;14.50;99.90
30280;DHT22;17097;50.916;5.344;2022-09-29T18:52:47;14.50;99.90
30280;DHT22;17097;50.916;5.344;2022-09-29T18:55:15;14.30;99.90
30280;DHT22;17097;50.916;5.344;2022-09-29T18:57:43;14.20;99.90
30280;DHT22;17097;50.916;5.344;2022-09-29T19:00:11;14.20;99.90
30280;DHT22;17097;50.916;5.344;2022-09-29T19:02:42;14.20;99.90
30280;DHT22;17097;50.916;5.344;2022-09-29T19:05:27;14.10;99.90
30280;DHT22;17097;50.916;5.344;2022-09-29T19:07:58;14.00;99.90
30280;DHT22;17097;50.916;5.344;2022-09-29T19:10:25;14.00;99.90
30280;DHT22;17097;50.916;5.344;2022-09-29T19:12:52;13.90;99.90
30280;DHT22;17097;50.916;5.344;2022-09-29T19:15:23;13.90;99.90
30280;DHT22;17097;50.916;5.344;2022-09-29T19:17:51;13.70;99.90
30280;DHT22;17097;50.916;5.344;2022-09-29T19:20:22;13.70;99.90
30280;DHT22;17097;50.916;5.344;2022-09-29T19:22:49;13.70;99.90
30280;DHT22;17097;50.916;5.344;2022-09-29T19:25:24;13.60;99.90
30280;DHT22;17097;50.916;5.344;2022-09-29T19:27:50;13.60;99.90
30280;DHT22;17097;50.916;5.344;2022-09-29T19:30:19;13.60;99.90
30280;DHT22;17097;50.916;5.344;2022-09-29T19:32:46;13.60;99.90
30280;DHT22;17097;50.916;5.344;2022-09-29T19:35:16;13.50;99.90
30280;DHT22;17097;50.916;5.344;2022-09-29T19:37:42;13.50;99.90
30280;DHT22;17097;50.916;5.344;2022-09-29T19:40:10;13.40;99.90
30280;DHT22;17097;50.916;5.344;2022-09-29T19:42:37;13.40;99.90
30280;DHT22;17097;50.916;5.344;2022-09-29T19:45:04;13.30;99.90
30280;DHT22;17097;50.916;5.344;2022-09-29T19:47:30;13.30;99.90